createdAt,value
2023-04-12T00:00:41.072Z,95156.25
2023-04-12T00:03:11.054Z,95154.63
2023-04-12T00:05:40.650Z,95156.25
2023-04-12T00:08:10.846Z,95155.78
2023-04-12T00:10:41.989Z,95151.84
2023-04-12T00:13:11.838Z,95149.28
2023-04-12T00:15:41.415Z,95130.41
2023-04-12T00:18:10.947Z,95133.66
2023-04-12T00:20:40.730Z,95132.09
2023-04-12T00:23:12.820Z,95127.09
2023-04-12T00:25:43.732Z,95127.22
2023-04-12T00:28:13.424Z,95131.00
2023-04-12T00:30:43.139Z,95123.94
2023-04-12T00:33:12.794Z,95126.94
2023-04-12T00:35:42.734Z,95126.19
2023-04-12T00:38:12.370Z,95121.91
2023-04-12T00:40:45.241Z,95115.28
2023-04-12T00:43:19.617Z,95111.09
2023-04-12T00:45:49.617Z,95107.47
2023-04-12T00:48:19.353Z,95110.47
2023-04-12T00:50:49.087Z,95103.28
2023-04-12T00:53:20.933Z,95095.06
2023-04-12T00:55:53.074Z,95091.13
2023-04-12T00:58:25.725Z,95100.47
2023-04-12T01:00:57.307Z,95099.72
2023-04-12T01:03:31.073Z,95100.16
2023-04-12T01:06:22.302Z,95097.97
2023-04-12T01:09:05.745Z,95100.69
2023-04-12T01:11:45.354Z,95106.91
2023-04-12T01:14:25.121Z,95100.28
2023-04-12T01:17:02.621Z,95104.66
2023-04-12T01:19:57.646Z,95096.16
2023-04-12T01:23:14.541Z,95109.41
2023-04-12T01:26:13.402Z,95102.63
2023-04-12T01:28:46.775Z,95104.56
2023-04-12T01:31:16.672Z,95096.97
2023-04-12T01:33:48.189Z,95101.25
2023-04-12T01:36:24.389Z,95100.44
2023-04-12T01:38:56.046Z,95095.69
2023-04-12T01:41:25.697Z,95097.28
2023-04-12T01:43:57.213Z,95094.75
2023-04-12T01:46:27.148Z,95091.59
2023-04-12T01:48:57.748Z,95086.66
2023-04-12T01:51:42.543Z,95092.63
2023-04-12T01:54:20.476Z,95096.66
2023-04-12T01:56:58.836Z,95086.50
2023-04-12T01:59:37.589Z,95096.81
2023-04-12T02:02:08.028Z,95088.03
2023-04-12T02:04:38.608Z,95094.97
2023-04-12T02:07:09.519Z,95091.25
2023-04-12T02:09:39.959Z,95092.53
